sensor_id;sensor_type;location;lat;lon;timestamp;temperature;humidity
52895;DHT22;38759;53.396;6.722;2023-03-23T00:02:25;10.00;99.90
52895;DHT22;38759;53.396;6.722;2023-03-23T00:04:51;9.90;99.90
52895;DHT22;38759;53.396;6.722;2023-03-23T00:07:20;9.90;99.90
52895;DHT22;38759;53.396;6.722;2023-03-23T00:09:50;9.90;99.90
52895;DHT22;38759;53.396;6.722;2023-03-23T00:12:27;9.80;99.90
52895;DHT22;38759;53.396;6.722;2023-03-23T00:15:03;9.90;99.90
52895;DHT22;38759;53.396;6.722;2023-03-23T00:17:30;9.80;99.90
52895;DHT22;38759;53.396;6.722;2023-03-23T00:19:58;9.80;99.90
52895;DHT22;38759;53.396;6.722;2023-03-23T00:22:27;9.80;99.90
52895;DHT22;38759;53.396;6.722;2023-03-23T00:24:53;9.80;99.90
52895;DHT22;38759;53.396;6.722;2023-03-23T00:27:20;9.70;99.90
52895;DHT22;38759;53.396;6.722;2023-03-23T00:29:48;9.70;99.90
52895;DHT22;38759;53.396;6.722;2023-03-23T00:32:19;9.80;99.90
52895;DHT22;38759;53.396;6.722;2023-03-23T00:34:46;9.80;99.90
52895;DHT22;38759;53.396;6.722;2023-03-23T00:37:14;9.80;99.90
52895;DHT22;38759;53.396;6.722;2023-03-23T00:39:42;9.80;99.90
52895;DHT22;38759;53.396;6.722;2023-03-23T00:42:12;9.80;99.90
52895;DHT22;38759;53.396;6.722;2023-03-23T00:44:39;10.00;99.90
52895;DHT22;38759;53.396;6.722;2023-03-23T00:47:05;10.00;99.90
52895;DHT22;38759;53.396;6.722;2023-03-23T00:49:33;10.10;99.90
52895;DHT22;38759;53.396;6.722;2023-03-23T00:52:00;10.00;99.90
52895;DHT22;38759;53.396;6.722;2023-03-23T00:54:27;10.00;99.90
52895;DHT22;38759;53.396;6.722;2023-03-23T00:56:53;10.10;99.90
52895;DHT22;38759;53.396;6.722;2023-03-23T00:59:20;10.10;99.90
52895;DHT22;38759;53.396;6.722;2023-03-23T01:01:46;10.00;99.90
52895;DHT22;38759;53.396;6.722;2023-03-23T01:04:12;10.00;99.90
52895;DHT22;38759;53.396;6.722;2023-03-23T01:06:40;10.00;99.90
52895;DHT22;38759;53.396;6.722;2023-03-23T01:09:07;10.10;99.90
52895;DHT22;38759;53.396;6.722;2023-03-23T01:11:33;10.10;99.90
52895;DHT22;38759;53.396;6.722;2023-03-23T01:13:59;10.00;99.90
52895;DHT22;38759;53.396;6.722;2023-03-23T01:16:25;10.00;99.90
52895;DHT22;38759;53.396;6.722;2023-03-23T01:18:51;10.00;99.90
52895;DHT22;38759;53.396;6.722;2023-03-23T01:21:19;10.00;99.90
52895;DHT22;38759;53.396;6.722;2023-03-23T01:23:45;10.00;99.90
52895;DHT22;38759;53.396;6.722;2023-03-23T01:26:16;10.00;99.90
52895;DHT22;38759;53.396;6.722;2023-03-23T01:28:43;10.00;99.90
52895;DHT22;38759;53.396;6.722;2023-03-23T01:31:12;10.00;99.90
52895;DHT22;38759;53.396;6.722;2023-03-23T01:33:39;10.00;99.90
52895;DHT22;38759;53.396;6.722;2023-03-23T01:36:07;10.00;99.90
52895;DHT22;38759;53.396;6.722;2023-03-23T01:38:35;10.10;99.90
52895;DHT22;38759;53.396;6.722;2023-03-23T01:41:02;10.10;99.90
52895;DHT22;38759;53.396;6.722;2023-03-23T01:43:28;10.10;99.90
52895;DHT22;38759;53.396;6.722;2023-03-23T01:45:53;10.20;99.90
52895;DHT22;38759;53.396;6.722;2023-03-23T01:48:35;10.20;99.90
52895;DHT22;38759;53.396;6.722;2023-03-23T01:51:14;10.20;99.90
52895;DHT22;38759;53.396;6.722;2023-03-23T01:53:50;10.20;99.90
52895;DHT22;38759;53.396;6.722;2023-03-23T01:56:21;10.20;99.90
52895;DHT22;38759;53.396;6.722;2023-03-23T01:58:51;10.20;99.90
52895;DHT22;38759;53.396;6.722;2023-03-23T02:01:18;10.20;99.90
52895;DHT22;38759;53.396;6.722;2023-03-23T02:03:46;10.10;99.90
52895;DHT22;38759;53.396;6.722;2023-03-23T02:06:13;10.10;99.90
52895;DHT22;38759;53.396;6.722;2023-03-23T02:08:40;10.00;99.90
52895;DHT22;38759;53.396;6.722;2023-03-23T02:11:16;10.10;99.90
52895;DHT22;38759;53.396;6.722;2023-03-23T02:13:43;10.00;99.90
52895;DHT22;38759;53.396;6.722;2023-03-23T02:22:29;10.00;99.90
52895;DHT22;38759;53.396;6.722;2023-03-23T02:27:54;10.10;99.90
52895;DHT22;38759;53.396;6.722;2023-03-23T02:35:52;10.30;99.90
52895;DHT22;38759;53.396;6.722;2023-03-23T02:40:59;10.40;99.90
52895;DHT22;38759;53.396;6.722;2023-03-23T02:43:28;10.50;99.90
52895;DHT22;38759;53.396;6.722;2023-03-23T02:45:57;10.50;99.90
52895;DHT22;38759;53.396;6.722;2023-03-23T02:48:27;10.50;99.90
52895;DHT22;38759;53.396;6.722;2023-03-23T02:50:54;10.50;99.90
52895;DHT22;38759;53.396;6.722;2023-03-23T02:53:23;10.60;99.90
52895;DHT22;38759;53.396;6.722;2023-03-23T02:55:51;10.70;99.90
52895;DHT22;38759;53.396;6.722;2023-03-23T02:58:18;10.70;99.90
52895;DHT22;38759;53.396;6.722;2023-03-23T03:00:44;10.70;99.90
52895;DHT22;38759;53.396;6.722;2023-03-23T03:03:17;10.70;99.90
52895;DHT22;38759;53.396;6.722;2023-03-23T03:05:55;10.70;99.90
52895;DHT22;38759;53.396;6.722;2023-03-23T03:10:58;10.80;99.90
52895;DHT22;38759;53.396;6.722;2023-03-23T03:13:36;10.80;99.90
52895;DHT22;38759;53.396;6.722;2023-03-23T03:19:14;10.80;99.90
52895;DHT22;38759;53.396;6.722;2023-03-23T03:21:44;10.80;99.90
52895;DHT22;38759;53.396;6.722;2023-03-23T03:24:12;10.90;99.90
52895;DHT22;38759;53.396;6.722;2023-03-23T03:26:43;10.80;99.90
52895;DHT22;38759;53.396;6.722;2023-03-23T03:29:18;10.80;99.90
52895;DHT22;38759;53.396;6.722;2023-03-23T03:31:47;10.80;99.90
52895;DHT22;38759;53.396;6.722;2023-03-23T03:34:15;10.80;99.90
52895;DHT22;38759;53.396;6.722;2023-03-23T03:36:44;10.70;99.90
52895;DHT22;38759;53.396;6.722;2023-03-23T03:39:13;10.80;99.90
52895;DHT22;38759;53.396;6.722;2023-03-23T03:41:41;10.80;99.90
52895;DHT22;38759;53.396;6.722;2023-03-23T03:44:08;10.80;99.90
52895;DHT22;38759;53.396;6.722;2023-03-23T03:46:35;10.80;99.90
52895;DHT22;38759;53.396;6.722;2023-03-23T03:49:03;10.80;99.90
52895;DHT22;38759;53.396;6.722;2023-03-23T03:51:30;10.80;99.90
52895;DHT22;38759;53.396;6.722;2023-03-23T03:53:56;10.80;99.90
52895;DHT22;38759;53.396;6.722;2023-03-23T03:56:23;10.80;99.90
52895;DHT22;38759;53.396;6.722;2023-03-23T03:58:49;10.80;99.90
52895;DHT22;38759;53.396;6.722;2023-03-23T04:01:18;10.80;99.90
52895;DHT22;38759;53.396;6.722;2023-03-23T04:03:44;10.70;99.90
52895;DHT22;38759;53.396;6.722;2023-03-23T04:06:10;10.80;99.90
52895;DHT22;38759;53.396;6.722;2023-03-23T04:08:38;10.80;99.90
52895;DHT22;38759;53.396;6.722;2023-03-23T04:11:05;10.80;99.90
52895;DHT22;38759;53.396;6.722;2023-03-23T04:13:31;10.80;99.90
52895;DHT22;38759;53.396;6.722;2023-03-23T04:15:57;10.90;99.90
52895;DHT22;38759;53.396;6.722;2023-03-23T04:18:23;10.80;99.90
52895;DHT22;38759;53.396;6.722;2023-03-23T04:20:50;10.80;99.90
52895;DHT22;38759;53.396;6.722;2023-03-23T04:23:17;10.80;99.90
52895;DHT22;38759;53.396;6.722;2023-03-23T04:25:48;10.70;99.90
52895;DHT22;38759;53.396;6.722;2023-03-23T04:28:15;10.60;99.90
52895;DHT22;38759;53.396;6.722;2023-03-23T04:30:42;10.60;99.90
52895;DHT22;38759;53.396;6.722;2023-03-23T04:33:09;10.50;99.90
52895;DHT22;38759;53.396;6.722;2023-03-23T04:35:40;10.50;99.90
52895;DHT22;38759;53.396;6.722;2023-03-23T04:38:07;10.50;99.90
52895;DHT22;38759;53.396;6.722;2023-03-23T04:40:38;10.50;99.90
52895;DHT22;38759;53.396;6.722;2023-03-23T04:43:04;10.50;99.90
52895;DHT22;38759;53.396;6.722;2023-03-23T04:45:31;10.50;99.90
52895;DHT22;38759;53.396;6.722;2023-03-23T04:47:57;10.50;99.90
52895;DHT22;38759;53.396;6.722;2023-03-23T04:50:29;10.50;99.90
52895;DHT22;38759;53.396;6.722;2023-03-23T04:52:56;10.40;99.90
52895;DHT22;38759;53.396;6.722;2023-03-23T04:55:25;10.40;99.90
52895;DHT22;38759;53.396;6.722;2023-03-23T04:57:51;10.50;99.90
52895;DHT22;38759;53.396;6.722;2023-03-23T05:00:18;10.40;99.90
52895;DHT22;38759;53.396;6.722;2023-03-23T05:02:46;10.40;99.90
52895;DHT22;38759;53.396;6.722;2023-03-23T05:05:17;10.40;99.90
52895;DHT22;38759;53.396;6.722;2023-03-23T05:07:43;10.30;99.90
52895;DHT22;38759;53.396;6.722;2023-03-23T05:10:10;10.30;99.90
52895;DHT22;38759;53.396;6.722;2023-03-23T05:12:36;10.20;99.90
52895;DHT22;38759;53.396;6.722;2023-03-23T05:15:03;10.30;99.90
52895;DHT22;38759;53.396;6.722;2023-03-23T05:17:29;10.30;99.90
52895;DHT22;38759;53.396;6.722;2023-03-23T05:19:56;10.30;99.90
52895;DHT22;38759;53.396;6.722;2023-03-23T05:22:22;10.30;99.90
52895;DHT22;38759;53.396;6.722;2023-03-23T05:24:49;10.30;99.90
52895;DHT22;38759;53.396;6.722;2023-03-23T05:27:17;10.30;99.90
52895;DHT22;38759;53.396;6.722;2023-03-23T05:29:47;10.30;99.90
52895;DHT22;38759;53.396;6.722;2023-03-23T05:32:15;10.30;99.90
52895;DHT22;38759;53.396;6.722;2023-03-23T05:34:41;10.30;99.90
52895;DHT22;38759;53.396;6.722;2023-03-23T05:37:09;10.20;99.90
52895;DHT22;38759;53.396;6.722;2023-03-23T05:39:35;10.30;99.90
52895;DHT22;38759;53.396;6.722;2023-03-23T05:42:02;10.20;99.90
52895;DHT22;38759;53.396;6.722;2023-03-23T05:44:28;10.30;99.90
52895;DHT22;38759;53.396;6.722;2023-03-23T05:46:55;10.30;99.90
52895;DHT22;38759;53.396;6.722;2023-03-23T05:49:20;10.30;99.90
52895;DHT22;38759;53.396;6.722;2023-03-23T05:51:47;10.30;99.90
52895;DHT22;38759;53.396;6.722;2023-03-23T05:54:15;10.20;99.90
52895;DHT22;38759;53.396;6.722;2023-03-23T05:56:41;10.30;99.90
52895;DHT22;38759;53.396;6.722;2023-03-23T05:59:08;10.20;99.90
52895;DHT22;38759;53.396;6.722;2023-03-23T06:01:36;10.20;99.90
52895;DHT22;38759;53.396;6.722;2023-03-23T06:04:02;10.20;99.90
52895;DHT22;38759;53.396;6.722;2023-03-23T06:06:29;10.10;99.90
52895;DHT22;38759;53.396;6.722;2023-03-23T06:08:56;10.20;99.90
52895;DHT22;38759;53.396;6.722;2023-03-23T06:11:23;10.20;99.90
52895;DHT22;38759;53.396;6.722;2023-03-23T06:13:50;10.20;99.90
52895;DHT22;38759;53.396;6.722;2023-03-23T06:16:16;10.20;99.90
52895;DHT22;38759;53.396;6.722;2023-03-23T06:18:42;10.30;99.90
52895;DHT22;38759;53.396;6.722;2023-03-23T06:21:09;10.30;99.90
52895;DHT22;38759;53.396;6.722;2023-03-23T06:23:34;10.20;99.90
52895;DHT22;38759;53.396;6.722;2023-03-23T06:26:03;10.20;99.90
52895;DHT22;38759;53.396;6.722;2023-03-23T06:28:30;10.20;99.90
52895;DHT22;38759;53.396;6.722;2023-03-23T06:31:02;10.20;99.90
52895;DHT22;38759;53.396;6.722;2023-03-23T06:33:32;10.20;99.90
52895;DHT22;38759;53.396;6.722;2023-03-23T06:35:59;10.20;99.90
52895;DHT22;38759;53.396;6.722;2023-03-23T06:38:25;10.20;99.90
52895;DHT22;38759;53.396;6.722;2023-03-23T06:40:55;10.20;99.90
52895;DHT22;38759;53.396;6.722;2023-03-23T06:43:21;10.10;99.90
52895;DHT22;38759;53.396;6.722;2023-03-23T06:45:47;10.20;99.90
52895;DHT22;38759;53.396;6.722;2023-03-23T06:48:13;10.10;99.90
52895;DHT22;38759;53.396;6.722;2023-03-23T06:50:41;10.10;99.90
52895;DHT22;38759;53.396;6.722;2023-03-23T06:53:07;10.00;99.90
52895;DHT22;38759;53.396;6.722;2023-03-23T06:55:33;10.00;99.90
52895;DHT22;38759;53.396;6.722;2023-03-23T06:57:58;9.80;99.90
52895;DHT22;38759;53.396;6.722;2023-03-23T07:00:26;9.90;99.90
52895;DHT22;38759;53.396;6.722;2023-03-23T07:02:52;9.80;99.90
52895;DHT22;38759;53.396;6.722;2023-03-23T07:05:18;9.70;99.90
52895;DHT22;38759;53.396;6.722;2023-03-23T07:07:45;9.90;99.90
52895;DHT22;38759;53.396;6.722;2023-03-23T07:10:10;9.90;99.90
52895;DHT22;38759;53.396;6.722;2023-03-23T07:12:36;9.80;99.90
52895;DHT22;38759;53.396;6.722;2023-03-23T07:15:03;9.90;99.90
52895;DHT22;38759;53.396;6.722;2023-03-23T07:17:29;9.90;99.90
52895;DHT22;38759;53.396;6.722;2023-03-23T07:19:55;9.90;99.90
52895;DHT22;38759;53.396;6.722;2023-03-23T07:22:21;9.90;99.90
52895;DHT22;38759;53.396;6.722;2023-03-23T07:24:47;9.80;99.90
52895;DHT22;38759;53.396;6.722;2023-03-23T07:27:13;9.80;99.90
52895;DHT22;38759;53.396;6.722;2023-03-23T07:29:39;9.80;99.90
52895;DHT22;38759;53.396;6.722;2023-03-23T07:32:06;9.80;99.90
52895;DHT22;38759;53.396;6.722;2023-03-23T07:34:37;9.80;99.90
52895;DHT22;38759;53.396;6.722;2023-03-23T07:37:04;9.90;99.90
52895;DHT22;38759;53.396;6.722;2023-03-23T07:39:29;9.90;99.90
52895;DHT22;38759;53.396;6.722;2023-03-23T07:41:55;9.90;99.90
52895;DHT22;38759;53.396;6.722;2023-03-23T07:44:21;10.00;99.90
52895;DHT22;38759;53.396;6.722;2023-03-23T07:46:47;10.00;99.90
52895;DHT22;38759;53.396;6.722;2023-03-23T07:49:13;10.00;99.90
52895;DHT22;38759;53.396;6.722;2023-03-23T07:51:39;10.10;99.90
52895;DHT22;38759;53.396;6.722;2023-03-23T07:54:06;10.20;99.90
52895;DHT22;38759;53.396;6.722;2023-03-23T07:56:34;10.30;99.90
52895;DHT22;38759;53.396;6.722;2023-03-23T07:59:01;10.30;99.90
52895;DHT22;38759;53.396;6.722;2023-03-23T08:01:26;10.40;99.90
52895;DHT22;38759;53.396;6.722;2023-03-23T08:03:52;10.40;99.90
52895;DHT22;38759;53.396;6.722;2023-03-23T08:06:20;10.50;99.90
52895;DHT22;38759;53.396;6.722;2023-03-23T08:08:47;10.50;99.90
52895;DHT22;38759;53.396;6.722;2023-03-23T08:11:12;10.60;99.90
52895;DHT22;38759;53.396;6.722;2023-03-23T08:13:41;10.70;99.90
52895;DHT22;38759;53.396;6.722;2023-03-23T08:16:07;10.70;99.90
52895;DHT22;38759;53.396;6.722;2023-03-23T08:18:35;10.70;99.90
52895;DHT22;38759;53.396;6.722;2023-03-23T08:21:02;10.70;99.90
52895;DHT22;38759;53.396;6.722;2023-03-23T08:23:30;10.80;99.90
52895;DHT22;38759;53.396;6.722;2023-03-23T08:25:56;10.70;99.90
52895;DHT22;38759;53.396;6.722;2023-03-23T08:28:22;10.80;99.90
52895;DHT22;38759;53.396;6.722;2023-03-23T08:30:49;10.80;99.90
52895;DHT22;38759;53.396;6.722;2023-03-23T08:33:15;10.80;99.90
52895;DHT22;38759;53.396;6.722;2023-03-23T08:35:41;10.90;99.90
52895;DHT22;38759;53.396;6.722;2023-03-23T08:38:12;10.90;99.90
52895;DHT22;38759;53.396;6.722;2023-03-23T08:40:39;10.90;99.90
52895;DHT22;38759;53.396;6.722;2023-03-23T08:43:05;10.90;99.90
52895;DHT22;38759;53.396;6.722;2023-03-23T08:45:31;10.90;99.90
52895;DHT22;38759;53.396;6.722;2023-03-23T08:47:56;11.00;99.90
52895;DHT22;38759;53.396;6.722;2023-03-23T08:50:26;10.90;99.90
52895;DHT22;38759;53.396;6.722;2023-03-23T08:52:53;11.00;99.90
52895;DHT22;38759;53.396;6.722;2023-03-23T08:55:21;11.00;99.90
52895;DHT22;38759;53.396;6.722;2023-03-23T08:57:47;11.10;99.90
52895;DHT22;38759;53.396;6.722;2023-03-23T09:00:17;11.20;99.90
52895;DHT22;38759;53.396;6.722;2023-03-23T09:02:51;11.30;99.90
52895;DHT22;38759;53.396;6.722;2023-03-23T09:05:19;11.20;99.90
52895;DHT22;38759;53.396;6.722;2023-03-23T09:07:49;11.30;99.90
52895;DHT22;38759;53.396;6.722;2023-03-23T09:10:15;11.30;99.90
52895;DHT22;38759;53.396;6.722;2023-03-23T09:12:43;11.30;99.90
52895;DHT22;38759;53.396;6.722;2023-03-23T09:15:11;11.30;99.90
52895;DHT22;38759;53.396;6.722;2023-03-23T09:17:39;11.30;99.90
52895;DHT22;38759;53.396;6.722;2023-03-23T09:20:06;11.20;99.90
52895;DHT22;38759;53.396;6.722;2023-03-23T09:22:47;11.30;99.90
52895;DHT22;38759;53.396;6.722;2023-03-23T09:25:14;11.30;99.90
52895;DHT22;38759;53.396;6.722;2023-03-23T09:27:41;11.30;99.90
52895;DHT22;38759;53.396;6.722;2023-03-23T09:30:10;11.30;99.90
52895;DHT22;38759;53.396;6.722;2023-03-23T09:32:38;11.20;99.90
52895;DHT22;38759;53.396;6.722;2023-03-23T09:35:06;11.10;99.90
52895;DHT22;38759;53.396;6.722;2023-03-23T09:37:37;11.10;99.90
52895;DHT22;38759;53.396;6.722;2023-03-23T09:40:05;11.20;99.90
52895;DHT22;38759;53.396;6.722;2023-03-23T09:45:25;11.20;99.90
52895;DHT22;38759;53.396;6.722;2023-03-23T09:50:40;11.60;99.90
52895;DHT22;38759;53.396;6.722;2023-03-23T09:53:21;11.80;99.90
52895;DHT22;38759;53.396;6.722;2023-03-23T09:55:48;11.90;99.90
52895;DHT22;38759;53.396;6.722;2023-03-23T09:58:20;11.90;99.90
52895;DHT22;38759;53.396;6.722;2023-03-23T10:03:40;12.10;99.90
52895;DHT22;38759;53.396;6.722;2023-03-23T10:06:12;12.20;99.90
52895;DHT22;38759;53.396;6.722;2023-03-23T10:08:47;12.30;99.90
52895;DHT22;38759;53.396;6.722;2023-03-23T10:14:15;12.50;99.90
52895;DHT22;38759;53.396;6.722;2023-03-23T10:22:14;12.90;99.90
52895;DHT22;38759;53.396;6.722;2023-03-23T10:30:23;12.60;99.90
52895;DHT22;38759;53.396;6.722;2023-03-23T10:35:24;12.90;99.90
52895;DHT22;38759;53.396;6.722;2023-03-23T10:38:00;13.00;99.90
52895;DHT22;38759;53.396;6.722;2023-03-23T10:40:29;13.10;99.90
52895;DHT22;38759;53.396;6.722;2023-03-23T10:42:56;13.10;99.90
52895;DHT22;38759;53.396;6.722;2023-03-23T10:45:24;13.00;99.90
52895;DHT22;38759;53.396;6.722;2023-03-23T10:47:57;13.00;99.90
52895;DHT22;38759;53.396;6.722;2023-03-23T10:50:34;12.90;99.90
52895;DHT22;38759;53.396;6.722;2023-03-23T10:53:00;12.80;99.90
52895;DHT22;38759;53.396;6.722;2023-03-23T10:55:37;12.70;99.90
52895;DHT22;38759;53.396;6.722;2023-03-23T10:58:11;12.60;99.90
52895;DHT22;38759;53.396;6.722;2023-03-23T11:00:44;12.40;99.90
52895;DHT22;38759;53.396;6.722;2023-03-23T11:05:43;12.50;99.90
52895;DHT22;38759;53.396;6.722;2023-03-23T11:08:25;12.50;99.90
52895;DHT22;38759;53.396;6.722;2023-03-23T11:10:52;12.50;99.90
52895;DHT22;38759;53.396;6.722;2023-03-23T11:13:20;12.60;99.90
52895;DHT22;38759;53.396;6.722;2023-03-23T11:15:48;12.50;99.90
52895;DHT22;38759;53.396;6.722;2023-03-23T11:18:37;12.60;99.90
52895;DHT22;38759;53.396;6.722;2023-03-23T11:21:05;12.80;99.90
52895;DHT22;38759;53.396;6.722;2023-03-23T11:23:36;12.90;99.90
52895;DHT22;38759;53.396;6.722;2023-03-23T11:26:20;13.10;99.90
52895;DHT22;38759;53.396;6.722;2023-03-23T11:28:57;13.20;99.90
52895;DHT22;38759;53.396;6.722;2023-03-23T11:31:28;13.50;99.90
52895;DHT22;38759;53.396;6.722;2023-03-23T11:34:24;13.60;99.90
52895;DHT22;38759;53.396;6.722;2023-03-23T11:36:57;13.80;99.90
52895;DHT22;38759;53.396;6.722;2023-03-23T11:39:29;14.00;99.90
52895;DHT22;38759;53.396;6.722;2023-03-23T11:41:58;14.00;99.90
52895;DHT22;38759;53.396;6.722;2023-03-23T11:44:32;14.20;99.90
52895;DHT22;38759;53.396;6.722;2023-03-23T11:47:04;14.10;99.90
52895;DHT22;38759;53.396;6.722;2023-03-23T11:55:19;13.80;99.90
52895;DHT22;38759;53.396;6.722;2023-03-23T11:57:46;13.80;99.90
52895;DHT22;38759;53.396;6.722;2023-03-23T12:00:21;13.80;99.90
52895;DHT22;38759;53.396;6.722;2023-03-23T12:03:07;13.70;99.90
52895;DHT22;38759;53.396;6.722;2023-03-23T12:06:00;13.50;99.90
52895;DHT22;38759;53.396;6.722;2023-03-23T12:20:01;13.60;99.90
52895;DHT22;38759;53.396;6.722;2023-03-23T12:45:49;14.20;99.90
52895;DHT22;38759;53.396;6.722;2023-03-23T12:48:23;14.20;99.90
52895;DHT22;38759;53.396;6.722;2023-03-23T12:51:16;14.40;99.90
52895;DHT22;38759;53.396;6.722;2023-03-23T12:56:33;14.60;99.90
52895;DHT22;38759;53.396;6.722;2023-03-23T13:01:42;14.50;99.90
52895;DHT22;38759;53.396;6.722;2023-03-23T13:04:13;14.50;99.90
52895;DHT22;38759;53.396;6.722;2023-03-23T13:06:42;14.50;99.90
52895;DHT22;38759;53.396;6.722;2023-03-23T13:11:40;14.10;99.90
52895;DHT22;38759;53.396;6.722;2023-03-23T13:17:14;14.10;99.90
52895;DHT22;38759;53.396;6.722;2023-03-23T13:22:20;13.90;99.90
52895;DHT22;38759;53.396;6.722;2023-03-23T13:24:54;13.80;99.90
52895;DHT22;38759;53.396;6.722;2023-03-23T13:27:25;13.70;99.90
52895;DHT22;38759;53.396;6.722;2023-03-23T13:29:54;13.70;99.90
52895;DHT22;38759;53.396;6.722;2023-03-23T13:32:35;13.60;99.90
52895;DHT22;38759;53.396;6.722;2023-03-23T13:35:12;13.70;99.90
52895;DHT22;38759;53.396;6.722;2023-03-23T13:37:46;13.90;99.90
52895;DHT22;38759;53.396;6.722;2023-03-23T13:40:30;14.10;99.90
52895;DHT22;38759;53.396;6.722;2023-03-23T13:42:59;14.10;99.90
52895;DHT22;38759;53.396;6.722;2023-03-23T13:48:24;14.20;99.90
52895;DHT22;38759;53.396;6.722;2023-03-23T13:50:59;14.30;99.90
52895;DHT22;38759;53.396;6.722;2023-03-23T13:53:44;14.20;99.90
52895;DHT22;38759;53.396;6.722;2023-03-23T13:56:20;14.00;99.90
52895;DHT22;38759;53.396;6.722;2023-03-23T14:01:19;13.90;99.90
52895;DHT22;38759;53.396;6.722;2023-03-23T14:03:58;13.80;99.90
52895;DHT22;38759;53.396;6.722;2023-03-23T14:06:26;13.70;99.90
52895;DHT22;38759;53.396;6.722;2023-03-23T14:08:54;13.80;99.90
52895;DHT22;38759;53.396;6.722;2023-03-23T14:11:25;13.80;99.90
52895;DHT22;38759;53.396;6.722;2023-03-23T14:14:07;13.70;99.90
52895;DHT22;38759;53.396;6.722;2023-03-23T14:16:38;13.60;99.90
52895;DHT22;38759;53.396;6.722;2023-03-23T14:19:23;13.50;99.90
52895;DHT22;38759;53.396;6.722;2023-03-23T14:21:55;13.50;99.90
52895;DHT22;38759;53.396;6.722;2023-03-23T14:24:38;13.50;99.90
52895;DHT22;38759;53.396;6.722;2023-03-23T14:27:09;13.60;99.90
52895;DHT22;38759;53.396;6.722;2023-03-23T14:29:38;13.50;99.90
52895;DHT22;38759;53.396;6.722;2023-03-23T14:32:07;13.60;99.90
52895;DHT22;38759;53.396;6.722;2023-03-23T14:34:34;13.70;99.90
52895;DHT22;38759;53.396;6.722;2023-03-23T14:37:00;13.70;99.90
52895;DHT22;38759;53.396;6.722;2023-03-23T14:39:32;13.80;99.90
52895;DHT22;38759;53.396;6.722;2023-03-23T14:42:04;14.00;99.90
52895;DHT22;38759;53.396;6.722;2023-03-23T14:44:34;14.20;99.90
52895;DHT22;38759;53.396;6.722;2023-03-23T14:47:06;14.40;99.90
52895;DHT22;38759;53.396;6.722;2023-03-23T14:49:38;14.50;99.90
52895;DHT22;38759;53.396;6.722;2023-03-23T14:52:10;14.40;99.90
52895;DHT22;38759;53.396;6.722;2023-03-23T14:54:37;14.30;99.90
52895;DHT22;38759;53.396;6.722;2023-03-23T14:57:27;14.20;99.90
52895;DHT22;38759;53.396;6.722;2023-03-23T14:59:54;14.10;99.90
52895;DHT22;38759;53.396;6.722;2023-03-23T15:05:01;14.30;99.90
52895;DHT22;38759;53.396;6.722;2023-03-23T15:07:33;14.30;99.90
52895;DHT22;38759;53.396;6.722;2023-03-23T15:09:59;14.40;99.90
52895;DHT22;38759;53.396;6.722;2023-03-23T15:12:28;14.40;99.90
52895;DHT22;38759;53.396;6.722;2023-03-23T15:14:57;14.40;99.90
52895;DHT22;38759;53.396;6.722;2023-03-23T15:17:33;14.40;99.90
52895;DHT22;38759;53.396;6.722;2023-03-23T15:20:18;14.50;99.90
52895;DHT22;38759;53.396;6.722;2023-03-23T15:22:46;14.50;99.90
52895;DHT22;38759;53.396;6.722;2023-03-23T15:27:52;14.40;99.90
52895;DHT22;38759;53.396;6.722;2023-03-23T15:33:06;14.30;99.90
52895;DHT22;38759;53.396;6.722;2023-03-23T15:35:37;14.30;99.90
52895;DHT22;38759;53.396;6.722;2023-03-23T15:38:17;14.30;99.90
52895;DHT22;38759;53.396;6.722;2023-03-23T15:40:43;14.30;99.90
52895;DHT22;38759;53.396;6.722;2023-03-23T15:43:22;14.30;99.90
52895;DHT22;38759;53.396;6.722;2023-03-23T15:51:20;14.20;99.90
52895;DHT22;38759;53.396;6.722;2023-03-23T15:53:47;14.30;99.90
52895;DHT22;38759;53.396;6.722;2023-03-23T15:56:13;14.30;99.90
52895;DHT22;38759;53.396;6.722;2023-03-23T15:58:39;14.30;99.90
52895;DHT22;38759;53.396;6.722;2023-03-23T16:01:18;14.20;99.90
52895;DHT22;38759;53.396;6.722;2023-03-23T16:03:54;14.20;99.90
52895;DHT22;38759;53.396;6.722;2023-03-23T16:06:22;14.20;99.90
52895;DHT22;38759;53.396;6.722;2023-03-23T16:08:48;14.10;99.90
52895;DHT22;38759;53.396;6.722;2023-03-23T16:11:16;14.00;99.90
52895;DHT22;38759;53.396;6.722;2023-03-23T16:13:42;14.10;99.90
52895;DHT22;38759;53.396;6.722;2023-03-23T16:16:18;14.00;99.90
52895;DHT22;38759;53.396;6.722;2023-03-23T16:18:44;14.00;99.90
52895;DHT22;38759;53.396;6.722;2023-03-23T16:21:10;13.80;99.90
52895;DHT22;38759;53.396;6.722;2023-03-23T16:23:35;13.70;99.90
52895;DHT22;38759;53.396;6.722;2023-03-23T16:26:02;13.60;99.90
52895;DHT22;38759;53.396;6.722;2023-03-23T16:28:28;13.60;99.90
52895;DHT22;38759;53.396;6.722;2023-03-23T16:30:53;13.50;99.90
52895;DHT22;38759;53.396;6.722;2023-03-23T16:33:19;13.40;99.90
52895;DHT22;38759;53.396;6.722;2023-03-23T16:35:45;13.30;99.90
52895;DHT22;38759;53.396;6.722;2023-03-23T16:38:15;13.30;99.90
52895;DHT22;38759;53.396;6.722;2023-03-23T16:40:43;13.30;99.90
52895;DHT22;38759;53.396;6.722;2023-03-23T16:43:09;13.20;99.90
52895;DHT22;38759;53.396;6.722;2023-03-23T16:45:38;13.00;99.90
52895;DHT22;38759;53.396;6.722;2023-03-23T16:48:04;13.00;99.90
52895;DHT22;38759;53.396;6.722;2023-03-23T16:50:31;12.90;99.90
52895;DHT22;38759;53.396;6.722;2023-03-23T16:52:56;12.80;99.90
52895;DHT22;38759;53.396;6.722;2023-03-23T16:55:23;12.70;99.90
52895;DHT22;38759;53.396;6.722;2023-03-23T16:57:50;12.70;99.90
52895;DHT22;38759;53.396;6.722;2023-03-23T17:00:17;12.60;99.90
52895;DHT22;38759;53.396;6.722;2023-03-23T17:02:49;12.60;99.90
52895;DHT22;38759;53.396;6.722;2023-03-23T17:05:17;12.50;99.90
52895;DHT22;38759;53.396;6.722;2023-03-23T17:07:44;12.40;99.90
52895;DHT22;38759;53.396;6.722;2023-03-23T17:10:12;12.30;99.90
52895;DHT22;38759;53.396;6.722;2023-03-23T17:12:37;12.30;99.90
52895;DHT22;38759;53.396;6.722;2023-03-23T17:15:04;12.30;99.90
52895;DHT22;38759;53.396;6.722;2023-03-23T17:17:30;12.30;99.90
52895;DHT22;38759;53.396;6.722;2023-03-23T17:19:56;12.20;99.90
52895;DHT22;38759;53.396;6.722;2023-03-23T17:22:22;12.30;99.90
52895;DHT22;38759;53.396;6.722;2023-03-23T17:24:48;12.20;99.90
52895;DHT22;38759;53.396;6.722;2023-03-23T17:27:15;12.20;99.90
52895;DHT22;38759;53.396;6.722;2023-03-23T17:29:42;12.10;99.90
52895;DHT22;38759;53.396;6.722;2023-03-23T17:32:08;12.10;99.90
52895;DHT22;38759;53.396;6.722;2023-03-23T17:34:34;12.00;99.90
52895;DHT22;38759;53.396;6.722;2023-03-23T17:37:03;12.00;99.90
52895;DHT22;38759;53.396;6.722;2023-03-23T17:39:30;11.90;99.90
52895;DHT22;38759;53.396;6.722;2023-03-23T17:41:57;11.90;99.90
52895;DHT22;38759;53.396;6.722;2023-03-23T17:44:23;11.80;99.90
52895;DHT22;38759;53.396;6.722;2023-03-23T17:46:49;11.70;99.90
52895;DHT22;38759;53.396;6.722;2023-03-23T17:49:15;11.70;99.90